Who's Online

We have 7 guests online

GK Weather

An error occured during parsing XML data. Please try again.

Aviation WX

[source: ADDS]
METAR
KIAD 012052Z 00000KT 10SM FEW035 SCT095 SCT200 28/22 A2996 RMK AO2 SLP143 CB DSNT E 60001 T02830222 58005 =
TAF
KIAD 011843Z 0119/0224 23005KT P6SM VCTS BKN050CB TEMPO 0119/0120 VRB25KT 5SM TSRA FM012300 20005KT P6SM BKN090 FM020200 21004KT P6SM FEW090 SCT250 FM020700 00000KT P6SM SCT250 FM021500 27006KT P6SM SCT090 FM022000 21009KT P6SM BKN050 =
SR / SS: 00:22 / 13:21 UTC (Washington-Dulles 2014-09-01)

JoomlaWatch Agent

Home Links
We are regularly out on the Web. When we find a great site we list it.